Time;durP1;ratioP1;P1;durP2;ratioP2;P2;SDS_P1;SDS_P2;PMS_P1;PMS_P2;Temp;Humidity;BMP_temperature;BMP_pressure;BME280_temperature;BME280_humidity;BME280_pressure;Samples;Min_cycle;Max_cycle;Signal;HPM_P1;HPM_P2
2022/03/10 00:01:53;;;;;;;15.35;11.73;;;;;;;;;;5013429;28;20186;-82
2022/03/10 00:04:19;;;;;;;16.48;11.30;;;;;;;;;;5001812;28;20230;-81
2022/03/10 00:06:45;;;;;;;16.65;11.02;;;;;;;;;;5019053;28;20640;-82
2022/03/10 00:09:11;;;;;;;14.90;11.68;;;;;;;;;;4993643;28;20626;-82
2022/03/10 00:11:37;;;;;;;18.95;11.90;;;;;;;;;;4990907;28;20184;-81
2022/03/10 00:14:03;;;;;;;15.55;11.38;;;;;;;;;;4989966;28;20198;-81
2022/03/10 00:16:29;;;;;;;16.55;11.75;;;;;;;;;;5016945;28;20190;-81
2022/03/10 00:18:55;;;;;;;14.18;11.85;;;;;;;;;;5016762;28;20186;-82
2022/03/10 00:21:21;;;;;;;14.35;12.13;;;;;;;;;;5015550;28;20619;-81
2022/03/10 00:23:47;;;;;;;12.85;11.05;;;;;;;;;;5012266;28;20202;-81
2022/03/10 00:26:13;;;;;;;12.07;10.35;;;;;;;;;;5002843;28;20183;-81
2022/03/10 00:28:39;;;;;;;17.80;10.63;;;;;;;;;;5015510;28;20194;-81
2022/03/10 00:31:05;;;;;;;17.07;12.03;;;;;;;;;;5017637;28;20637;-81
2022/03/10 00:33:31;;;;;;;14.20;10.63;;;;;;;;;;5000243;28;20517;-81
2022/03/10 00:35:57;;;;;;;13.90;10.57;;;;;;;;;;5004712;28;20206;-81
2022/03/10 00:38:23;;;;;;;14.40;11.90;;;;;;;;;;4999010;28;20211;-81
2022/03/10 00:40:49;;;;;;;15.20;10.90;;;;;;;;;;4990594;28;20194;-81
2022/03/10 00:43:15;;;;;;;11.90;9.80;;;;;;;;;;5017435;28;20203;-81
2022/03/10 00:45:41;;;;;;;16.92;11.60;;;;;;;;;;5017765;28;20258;-82
2022/03/10 00:48:09;;;;;;;13.98;10.00;;;;;;;;;;5006662;28;20178;-81
2022/03/10 00:50:35;;;;;;;14.52;10.40;;;;;;;;;;5002436;28;20193;-81
2022/03/10 00:53:01;;;;;;;17.20;10.35;;;;;;;;;;5001963;28;20218;-81
2022/03/10 00:55:27;;;;;;;16.73;10.38;;;;;;;;;;5017160;28;20187;-81
2022/03/10 00:57:53;;;;;;;17.48;11.57;;;;;;;;;;5003692;28;20179;-82
2022/03/10 01:00:19;;;;;;;10.30;9.23;;;;;;;;;;5002091;28;20669;-80
2022/03/10 01:02:45;;;;;;;12.30;9.88;;;;;;;;;;4994996;28;20376;-81
2022/03/10 01:05:12;;;;;;;13.50;9.98;;;;;;;;;;4996521;28;20666;-81
2022/03/10 01:07:38;;;;;;;15.13;11.30;;;;;;;;;;5015282;28;20180;-81
2022/03/10 01:10:05;;;;;;;15.40;10.30;;;;;;;;;;5017781;28;20171;-81
2022/03/10 01:12:32;;;;;;;12.95;10.23;;;;;;;;;;5017441;28;20179;-81
2022/03/10 01:14:58;;;;;;;13.65;9.77;;;;;;;;;;5010333;28;20210;-82
2022/03/10 01:17:24;;;;;;;13.75;9.90;;;;;;;;;;5009840;28;20196;-81
2022/03/10 01:19:50;;;;;;;15.73;11.20;;;;;;;;;;4988340;28;20183;-80
2022/03/10 01:22:17;;;;;;;11.18;8.90;;;;;;;;;;5019794;28;20250;-81
2022/03/10 01:24:43;;;;;;;11.93;9.95;;;;;;;;;;4994167;28;20254;-81
2022/03/10 01:27:10;;;;;;;14.05;9.93;;;;;;;;;;5001770;28;20430;-81
2022/03/10 01:29:36;;;;;;;12.82;9.10;;;;;;;;;;4995507;28;20192;-81
2022/03/10 01:32:02;;;;;;;17.15;9.55;;;;;;;;;;4994243;28;20724;-81
2022/03/10 01:34:28;;;;;;;12.32;9.68;;;;;;;;;;5020050;28;20219;-81
2022/03/10 01:36:54;;;;;;;14.95;10.18;;;;;;;;;;5006962;28;20179;-81
2022/03/10 01:39:20;;;;;;;15.30;10.20;;;;;;;;;;5015953;28;20230;-81
2022/03/10 01:41:46;;;;;;;13.95;10.18;;;;;;;;;;5020199;28;20190;-81
2022/03/10 01:44:12;;;;;;;14.50;9.75;;;;;;;;;;5004122;28;20209;-81
2022/03/10 01:46:38;;;;;;;14.55;9.45;;;;;;;;;;5018013;28;20190;-81
2022/03/10 01:49:05;;;;;;;14.68;10.73;;;;;;;;;;5007866;28;20179;-81
2022/03/10 01:51:32;;;;;;;11.60;8.40;;;;;;;;;;4993879;28;20184;-81
2022/03/10 01:53:58;;;;;;;13.32;8.80;;;;;;;;;;4999444;28;20191;-80
2022/03/10 01:56:25;;;;;;;13.63;9.73;;;;;;;;;;4999258;28;20199;-81
2022/03/10 01:58:52;;;;;;;12.00;9.18;;;;;;;;;;5004860;28;20191;-81
2022/03/10 02:01:18;;;;;;;15.88;10.23;;;;;;;;;;5020070;28;20187;-81
2022/03/10 02:03:44;;;;;;;12.18;9.60;;;;;;;;;;5018084;28;20265;-81
2022/03/10 02:06:11;;;;;;;13.70;10.00;;;;;;;;;;5016531;28;20183;-81
2022/03/10 02:11:22;;;;;;;13.88;10.13;;;;;;;;;;4996489;28;20193;-81
2022/03/10 02:13:48;;;;;;;16.02;10.93;;;;;;;;;;5004509;28;20191;-81
2022/03/10 02:19:00;;;;;;;16.50;10.95;;;;;;;;;;5006552;28;20198;-82
2022/03/10 02:21:26;;;;;;;15.93;10.98;;;;;;;;;;4992706;28;20207;-82
2022/03/10 02:23:52;;;;;;;16.33;9.68;;;;;;;;;;5002976;28;20684;-81
2022/03/10 02:26:18;;;;;;;13.13;10.32;;;;;;;;;;5005277;28;20187;-81
2022/03/10 02:28:44;;;;;;;19.88;10.25;;;;;;;;;;5003443;28;20195;-81
2022/03/10 02:31:11;;;;;;;12.07;10.07;;;;;;;;;;4989465;28;20180;-82
2022/03/10 02:33:37;;;;;;;15.80;11.30;;;;;;;;;;5020169;28;20536;-82
2022/03/10 02:36:04;;;;;;;14.40;9.70;;;;;;;;;;5004433;28;20210;-82
2022/03/10 02:38:30;;;;;;;13.15;10.07;;;;;;;;;;5014147;28;20223;-81
2022/03/10 02:40:57;;;;;;;13.65;10.05;;;;;;;;;;5017172;28;20195;-81
2022/03/10 02:43:23;;;;;;;13.95;9.52;;;;;;;;;;5001920;28;20676;-82
2022/03/10 02:45:49;;;;;;;12.90;11.05;;;;;;;;;;5004693;28;20187;-81
2022/03/10 02:48:15;;;;;;;15.57;10.20;;;;;;;;;;5013395;28;20276;-82
2022/03/10 02:50:42;;;;;;;17.25;11.63;;;;;;;;;;5018759;28;20190;-81
2022/03/10 02:53:09;;;;;;;14.15;10.32;;;;;;;;;;5015433;28;20195;-81
2022/03/10 02:55:35;;;;;;;16.77;12.15;;;;;;;;;;5017592;28;20189;-81
2022/03/10 02:58:01;;;;;;;13.52;10.48;;;;;;;;;;5004471;28;20186;-81
2022/03/10 03:00:27;;;;;;;13.93;11.00;;;;;;;;;;5004335;28;20183;-81
2022/03/10 03:02:53;;;;;;;14.43;10.65;;;;;;;;;;5011619;28;20214;-81
2022/03/10 03:05:19;;;;;;;15.57;10.07;;;;;;;;;;4991879;28;20182;-81
2022/03/10 03:07:45;;;;;;;14.73;10.38;;;;;;;;;;5000920;28;20667;-81
2022/03/10 03:10:12;;;;;;;15.73;10.45;;;;;;;;;;5019735;28;20186;-81
2022/03/10 03:12:48;;;;;;;14.52;9.80;;;;;;;;;;5019881;28;20175;-81
2022/03/10 03:15:15;;;;;;;14.63;11.50;;;;;;;;;;5014250;28;20190;-81
2022/03/10 03:17:41;;;;;;;14.05;10.45;;;;;;;;;;5015181;28;20184;-81
2022/03/10 03:20:09;;;;;;;11.50;8.95;;;;;;;;;;4988730;28;20234;-81
2022/03/10 03:22:35;;;;;;;12.88;10.25;;;;;;;;;;5004270;28;20202;-81
2022/03/10 03:25:01;;;;;;;15.43;9.80;;;;;;;;;;5005396;28;20236;-81
2022/03/10 03:27:27;;;;;;;17.23;10.45;;;;;;;;;;5004237;28;20179;-81
2022/03/10 03:29:53;;;;;;;13.82;9.43;;;;;;;;;;5003765;28;20182;-81
2022/03/10 03:32:19;;;;;;;13.30;10.05;;;;;;;;;;5011827;28;20776;-81
2022/03/10 03:34:45;;;;;;;16.17;10.52;;;;;;;;;;4988768;28;20183;-81
2022/03/10 03:37:11;;;;;;;15.00;9.80;;;;;;;;;;5003663;28;20178;-82
2022/03/10 03:39:37;;;;;;;14.55;9.82;;;;;;;;;;5020314;28;20520;-81
2022/03/10 03:42:03;;;;;;;11.90;9.07;;;;;;;;;;5014976;28;20626;-81
2022/03/10 03:44:29;;;;;;;13.88;10.18;;;;;;;;;;5014399;28;20191;-81
2022/03/10 03:46:55;;;;;;;16.95;10.25;;;;;;;;;;4990256;28;20182;-82
2022/03/10 03:49:21;;;;;;;11.77;9.65;;;;;;;;;;5003852;28;20199;-81
2022/03/10 03:51:47;;;;;;;14.02;10.00;;;;;;;;;;5004565;28;20178;-82
2022/03/10 03:54:13;;;;;;;15.50;10.93;;;;;;;;;;5013740;28;20222;-81
2022/03/10 03:56:39;;;;;;;13.23;9.68;;;;;;;;;;4997833;28;20238;-81
2022/03/10 03:59:05;;;;;;;13.95;9.85;;;;;;;;;;5006324;28;20720;-82
2022/03/10 04:01:31;;;;;;;11.65;9.02;;;;;;;;;;4987411;28;20187;-82
2022/03/10 04:03:57;;;;;;;14.27;9.48;;;;;;;;;;5004209;28;20268;-81
2022/03/10 04:06:24;;;;;;;13.27;10.30;;;;;;;;;;4993266;28;20275;-81
2022/03/10 04:08:50;;;;;;;17.02;10.43;;;;;;;;;;4997082;28;20179;-82
2022/03/10 04:11:16;;;;;;;11.30;8.77;;;;;;;;;;5003232;28;20186;-82
2022/03/10 04:13:42;;;;;;;13.55;9.50;;;;;;;;;;5002264;28;20291;-82
2022/03/10 04:16:09;;;;;;;13.73;9.43;;;;;;;;;;4999703;28;20186;-81
2022/03/10 04:18:35;;;;;;;17.38;9.20;;;;;;;;;;4999607;28;20194;-82
2022/03/10 04:21:01;;;;;;;12.55;9.38;;;;;;;;;;5003347;28;20202;-82
2022/03/10 04:23:27;;;;;;;14.07;9.80;;;;;;;;;;5017625;28;20209;-82
2022/03/10 04:25:54;;;;;;;14.02;9.27;;;;;;;;;;5003371;28;20251;-81
2022/03/10 04:28:20;;;;;;;13.77;9.30;;;;;;;;;;5018069;28;20179;-81
2022/03/10 04:30:46;;;;;;;11.60;9.45;;;;;;;;;;5003996;28;20221;-81
2022/03/10 04:33:12;;;;;;;14.25;9.10;;;;;;;;;;5013820;28;20222;-81
2022/03/10 04:35:38;;;;;;;15.18;9.23;;;;;;;;;;5009642;28;20187;-81
2022/03/10 04:38:04;;;;;;;14.50;9.48;;;;;;;;;;5013584;28;20218;-81
2022/03/10 04:40:31;;;;;;;11.27;8.73;;;;;;;;;;4986802;28;20194;-82
2022/03/10 04:42:58;;;;;;;10.50;9.00;;;;;;;;;;5018094;28;20229;-81
2022/03/10 04:45:24;;;;;;;14.07;10.68;;;;;;;;;;4988864;28;20183;-82
2022/03/10 04:47:50;;;;;;;11.85;10.10;;;;;;;;;;5000706;28;20186;-82
2022/03/10 04:50:17;;;;;;;12.70;9.23;;;;;;;;;;5002410;28;20187;-81
2022/03/10 04:52:43;;;;;;;14.43;9.45;;;;;;;;;;5002733;28;20195;-81
2022/03/10 04:55:10;;;;;;;12.73;10.00;;;;;;;;;;5018750;28;20179;-81
2022/03/10 04:57:36;;;;;;;11.30;8.85;;;;;;;;;;5022718;28;20179;-81
2022/03/10 05:00:08;;;;;;;13.52;9.70;;;;;;;;;;5017072;28;20193;-81
2022/03/10 05:02:34;;;;;;;14.13;10.23;;;;;;;;;;5018085;28;20290;-81
2022/03/10 05:05:00;;;;;;;11.57;8.95;;;;;;;;;;5021183;28;20241;-81
2022/03/10 05:07:26;;;;;;;10.03;8.93;;;;;;;;;;5007101;28;20210;-81
2022/03/10 05:09:52;;;;;;;13.43;9.05;;;;;;;;;;5006757;28;20444;-81
2022/03/10 05:12:18;;;;;;;14.35;10.60;;;;;;;;;;5007099;28;20187;-81
2022/03/10 05:14:44;;;;;;;11.98;9.65;;;;;;;;;;5010239;28;20182;-82
2022/03/10 05:17:10;;;;;;;13.30;9.00;;;;;;;;;;5019987;28;20183;-81
2022/03/10 05:19:36;;;;;;;11.13;9.18;;;;;;;;;;5020145;28;20191;-82
2022/03/10 05:22:03;;;;;;;11.82;9.30;;;;;;;;;;5021815;28;20202;-81
2022/03/10 05:24:29;;;;;;;13.98;9.25;;;;;;;;;;5006911;28;20169;-82
2022/03/10 05:26:57;;;;;;;11.63;7.85;;;;;;;;;;5005858;28;20242;-81
2022/03/10 05:29:23;;;;;;;11.98;9.00;;;;;;;;;;5004702;28;20187;-81
2022/03/10 05:31:49;;;;;;;15.18;10.30;;;;;;;;;;5017657;28;20191;-81
2022/03/10 05:34:15;;;;;;;13.40;10.30;;;;;;;;;;5006722;28;20186;-82
2022/03/10 05:36:41;;;;;;;13.77;10.35;;;;;;;;;;5005654;28;20186;-81
2022/03/10 05:39:07;;;;;;;13.68;9.68;;;;;;;;;;5001678;28;20227;-81
2022/03/10 05:41:33;;;;;;;13.02;9.10;;;;;;;;;;5002048;28;20251;-81
2022/03/10 05:43:59;;;;;;;14.10;10.00;;;;;;;;;;4992490;28;20210;-81
2022/03/10 05:46:25;;;;;;;10.90;8.82;;;;;;;;;;5012102;28;20245;-82
2022/03/10 05:48:51;;;;;;;14.10;8.95;;;;;;;;;;5021857;28;20175;-82
2022/03/10 05:51:17;;;;;;;12.38;9.02;;;;;;;;;;5006368;28;20178;-81
2022/03/10 05:53:43;;;;;;;14.27;9.30;;;;;;;;;;5014772;28;20198;-82
2022/03/10 05:56:09;;;;;;;14.48;9.80;;;;;;;;;;5003662;28;20718;-82
2022/03/10 05:58:35;;;;;;;15.98;10.10;;;;;;;;;;5019604;28;20286;-81
2022/03/10 06:01:01;;;;;;;12.65;10.30;;;;;;;;;;5005835;28;20190;-81
2022/03/10 06:03:27;;;;;;;9.60;8.55;;;;;;;;;;5021003;28;20203;-82
2022/03/10 06:05:53;;;;;;;9.95;8.30;;;;;;;;;;5000455;28;20323;-81
2022/03/10 06:08:19;;;;;;;13.48;9.43;;;;;;;;;;5014495;28;20191;-82
2022/03/10 06:10:45;;;;;;;13.98;9.68;;;;;;;;;;4994118;28;20176;-82
2022/03/10 06:13:11;;;;;;;13.32;10.27;;;;;;;;;;5003904;28;20176;-81
2022/03/10 06:15:37;;;;;;;20.88;10.10;;;;;;;;;;5017421;28;20257;-82
2022/03/10 06:18:04;;;;;;;15.77;10.45;;;;;;;;;;4997177;28;20191;-82
2022/03/10 06:20:31;;;;;;;16.02;9.73;;;;;;;;;;5012742;28;20540;-82
2022/03/10 06:22:57;;;;;;;17.85;10.13;;;;;;;;;;5015382;28;20763;-81
2022/03/10 06:25:23;;;;;;;16.27;10.00;;;;;;;;;;5003888;28;20195;-82
2022/03/10 06:27:49;;;;;;;12.70;10.27;;;;;;;;;;5020470;28;20171;-82
2022/03/10 06:30:15;;;;;;;15.15;11.63;;;;;;;;;;5012805;28;20175;-82
2022/03/10 06:32:41;;;;;;;15.30;10.85;;;;;;;;;;4999427;28;20179;-82
2022/03/10 06:35:08;;;;;;;15.35;10.07;;;;;;;;;;4998251;28;20238;-82
2022/03/10 06:37:34;;;;;;;15.15;10.15;;;;;;;;;;5019185;28;20180;-82
2022/03/10 06:40:02;;;;;;;12.70;10.18;;;;;;;;;;5021800;28;20223;-82
2022/03/10 06:42:30;;;;;;;15.85;10.27;;;;;;;;;;4991350;28;20206;-82
2022/03/10 06:44:56;;;;;;;11.77;9.38;;;;;;;;;;4998328;28;20195;-82
2022/03/10 06:47:22;;;;;;;15.30;10.48;;;;;;;;;;4999868;28;20233;-82
2022/03/10 06:49:48;;;;;;;15.90;10.27;;;;;;;;;;5002141;28;20190;-81
2022/03/10 06:52:14;;;;;;;13.68;9.57;;;;;;;;;;5005575;28;20180;-82
2022/03/10 06:54:41;;;;;;;16.10;9.73;;;;;;;;;;5005247;28;20201;-81
2022/03/10 06:57:08;;;;;;;17.33;10.80;;;;;;;;;;5008116;28;20180;-81
2022/03/10 06:59:34;;;;;;;15.07;11.32;;;;;;;;;;5004307;28;20183;-81
2022/03/10 07:02:00;;;;;;;13.38;10.98;;;;;;;;;;5019562;28;20191;-81
2022/03/10 07:04:26;;;;;;;19.63;11.45;;;;;;;;;;5003555;28;20207;-81
2022/03/10 07:06:52;;;;;;;13.82;10.80;;;;;;;;;;5005635;28;20175;-81
2022/03/10 07:09:19;;;;;;;18.02;11.73;;;;;;;;;;5004178;28;20348;-81
2022/03/10 07:11:46;;;;;;;14.55;9.80;;;;;;;;;;5004081;28;20187;-82
2022/03/10 07:14:11;;;;;;;11.15;9.82;;;;;;;;;;5003720;28;20267;-81
2022/03/10 07:16:37;;;;;;;18.25;10.88;;;;;;;;;;5003929;28;20213;-81
2022/03/10 07:19:08;;;;;;;15.82;11.02;;;;;;;;;;5019516;28;20179;-81
2022/03/10 07:21:35;;;;;;;15.45;11.38;;;;;;;;;;5019673;28;20205;-86
2022/03/10 07:24:01;;;;;;;18.67;13.02;;;;;;;;;;5003381;28;20230;-81
2022/03/10 07:26:27;;;;;;;13.35;10.68;;;;;;;;;;5006961;28;20187;-81
2022/03/10 07:28:53;;;;;;;13.65;11.68;;;;;;;;;;5002476;28;20191;-82
2022/03/10 07:31:19;;;;;;;17.80;12.38;;;;;;;;;;5001587;28;20207;-81
2022/03/10 07:33:45;;;;;;;15.35;11.65;;;;;;;;;;5004439;28;20710;-82
2022/03/10 07:36:11;;;;;;;15.23;12.02;;;;;;;;;;5001876;28;20251;-81
2022/03/10 07:38:37;;;;;;;18.70;12.73;;;;;;;;;;5003415;28;20241;-81
2022/03/10 07:41:03;;;;;;;19.00;12.77;;;;;;;;;;5002011;28;20187;-82
2022/03/10 07:43:29;;;;;;;19.13;12.32;;;;;;;;;;5003607;28;20210;-82
2022/03/10 07:45:55;;;;;;;20.45;13.13;;;;;;;;;;5001921;28;20235;-81
2022/03/10 07:48:21;;;;;;;25.15;13.73;;;;;;;;;;5016651;28;20179;-82
2022/03/10 07:50:47;;;;;;;19.63;13.40;;;;;;;;;;5003188;28;20187;-81
2022/03/10 07:53:13;;;;;;;19.55;13.02;;;;;;;;;;5001092;28;20202;-81
2022/03/10 07:55:39;;;;;;;17.02;12.68;;;;;;;;;;5000928;28;20198;-80
2022/03/10 07:58:05;;;;;;;19.35;13.95;;;;;;;;;;4995451;28;20187;-80
2022/03/10 08:00:32;;;;;;;21.00;14.52;;;;;;;;;;5019198;28;20274;-80
2022/03/10 08:02:58;;;;;;;21.48;14.20;;;;;;;;;;5000335;28;20210;-80
2022/03/10 08:05:24;;;;;;;24.17;12.93;;;;;;;;;;5001712;28;20845;-80
2022/03/10 08:07:50;;;;;;;17.95;14.18;;;;;;;;;;4999354;28;20179;-81
2022/03/10 08:10:16;;;;;;;17.45;13.73;;;;;;;;;;5000594;28;20652;-81
2022/03/10 08:12:42;;;;;;;21.58;13.65;;;;;;;;;;5001476;28;20187;-80
2022/03/10 08:15:08;;;;;;;15.50;13.40;;;;;;;;;;5001882;28;20218;-81
2022/03/10 08:17:36;;;;;;;20.83;15.30;;;;;;;;;;5005913;28;20278;-81
2022/03/10 08:20:02;;;;;;;22.92;14.75;;;;;;;;;;4995983;28;20184;-80
2022/03/10 08:22:28;;;;;;;17.95;14.35;;;;;;;;;;4995797;28;26077;-81
2022/03/10 08:24:54;;;;;;;22.05;14.00;;;;;;;;;;4990761;28;20175;-80
2022/03/10 08:27:20;;;;;;;20.33;14.10;;;;;;;;;;5002720;28;20187;-80
2022/03/10 08:29:46;;;;;;;22.10;14.15;;;;;;;;;;4995543;28;20197;-80
2022/03/10 08:32:13;;;;;;;20.75;14.77;;;;;;;;;;4999285;28;20186;-80
2022/03/10 08:34:39;;;;;;;20.40;14.98;;;;;;;;;;4996309;28;20191;-80
2022/03/10 08:37:05;;;;;;;18.92;14.32;;;;;;;;;;4998707;28;20190;-80
2022/03/10 08:39:31;;;;;;;19.27;14.60;;;;;;;;;;4999948;28;20218;-80
2022/03/10 08:41:59;;;;;;;19.70;14.43;;;;;;;;;;4988522;28;20192;-80
2022/03/10 08:44:25;;;;;;;20.60;14.18;;;;;;;;;;4989929;28;20206;-80
2022/03/10 08:46:51;;;;;;;17.63;13.55;;;;;;;;;;4997794;28;20210;-80
2022/03/10 08:49:18;;;;;;;20.30;14.30;;;;;;;;;;4997240;28;20414;-80
2022/03/10 08:51:45;;;;;;;19.83;14.98;;;;;;;;;;4986637;28;20207;-80
2022/03/10 08:54:12;;;;;;;22.95;15.60;;;;;;;;;;4998003;28;20330;-80
2022/03/10 08:56:38;;;;;;;20.00;14.75;;;;;;;;;;5015059;28;20178;-80
2022/03/10 08:59:04;;;;;;;18.65;14.68;;;;;;;;;;5000102;28;20195;-80
2022/03/10 09:01:30;;;;;;;20.17;14.70;;;;;;;;;;4984911;28;20193;-80
2022/03/10 09:03:56;;;;;;;19.52;14.48;;;;;;;;;;5003291;28;20501;-80
2022/03/10 09:06:22;;;;;;;18.15;13.98;;;;;;;;;;4999201;28;20249;-79
2022/03/10 09:08:48;;;;;;;17.90;12.45;;;;;;;;;;5011463;28;20184;-80
2022/03/10 09:11:15;;;;;;;15.40;11.27;;;;;;;;;;4996603;28;20186;-80
2022/03/10 09:13:44;;;;;;;16.75;11.07;;;;;;;;;;4997259;28;20194;-79
2022/03/10 09:16:10;;;;;;;10.40;9.15;;;;;;;;;;4999469;28;20177;-78
2022/03/10 09:18:36;;;;;;;11.07;8.82;;;;;;;;;;4995255;28;20612;-77
2022/03/10 09:21:04;;;;;;;11.95;8.65;;;;;;;;;;4997543;28;20211;-77
2022/03/10 09:23:30;;;;;;;12.32;8.50;;;;;;;;;;5013563;28;20551;-77
2022/03/10 09:25:56;;;;;;;12.13;8.38;;;;;;;;;;4998134;28;20191;-78
2022/03/10 09:28:22;;;;;;;8.10;7.05;;;;;;;;;;5000337;28;20194;-78
2022/03/10 09:30:48;;;;;;;9.57;8.00;;;;;;;;;;4989055;28;20279;-78
2022/03/10 09:33:14;;;;;;;13.80;8.23;;;;;;;;;;4985629;28;20208;-78
2022/03/10 09:35:40;;;;;;;11.48;7.93;;;;;;;;;;4996964;28;20175;-77
2022/03/10 09:38:07;;;;;;;10.25;8.07;;;;;;;;;;4998164;28;20198;-78
2022/03/10 09:40:33;;;;;;;12.35;8.35;;;;;;;;;;5006786;28;20183;-78
2022/03/10 09:42:59;;;;;;;11.68;8.68;;;;;;;;;;5002114;28;20231;-77
2022/03/10 09:45:28;;;;;;;9.35;8.07;;;;;;;;;;4992365;28;20202;-78
2022/03/10 09:47:54;;;;;;;10.20;8.88;;;;;;;;;;5000649;28;20186;-78
2022/03/10 09:50:20;;;;;;;9.95;8.70;;;;;;;;;;5000575;28;20186;-78
2022/03/10 09:52:47;;;;;;;11.75;8.43;;;;;;;;;;5003768;28;20642;-79
2022/03/10 09:55:13;;;;;;;11.68;8.60;;;;;;;;;;5004478;28;20211;-78
2022/03/10 09:57:40;;;;;;;9.32;7.70;;;;;;;;;;5004042;28;20171;-78
2022/03/10 10:00:08;;;;;;;9.30;7.30;;;;;;;;;;5003293;28;20568;-77
2022/03/10 10:02:35;;;;;;;8.70;7.22;;;;;;;;;;5013591;28;20203;-78
2022/03/10 10:05:01;;;;;;;8.73;6.90;;;;;;;;;;5001902;28;20175;-78
2022/03/10 10:07:29;;;;;;;9.27;7.32;;;;;;;;;;5003189;28;20211;-78
2022/03/10 10:09:57;;;;;;;10.55;7.07;;;;;;;;;;4991470;28;20583;-78
2022/03/10 10:12:26;;;;;;;11.95;7.97;;;;;;;;;;5001854;28;20193;-78
2022/03/10 10:14:52;;;;;;;10.23;7.35;;;;;;;;;;5002274;28;20187;-78
2022/03/10 10:17:25;;;;;;;8.55;6.50;;;;;;;;;;5001954;28;20290;-78
2022/03/10 10:19:54;;;;;;;7.40;6.47;;;;;;;;;;5000987;28;20546;-78
2022/03/10 10:22:20;;;;;;;9.27;6.93;;;;;;;;;;4987735;28;20186;-78
2022/03/10 10:24:57;;;;;;;11.27;6.80;;;;;;;;;;4989665;28;20244;-78
2022/03/10 10:27:28;;;;;;;8.75;6.97;;;;;;;;;;5002042;28;20262;-78
2022/03/10 10:29:54;;;;;;;10.55;7.55;;;;;;;;;;5018000;28;20202;-78
2022/03/10 10:32:24;;;;;;;8.67;6.50;;;;;;;;;;5000351;28;20222;-78
2022/03/10 10:35:00;;;;;;;7.50;6.70;;;;;;;;;;5003902;28;20449;-78
2022/03/10 10:37:26;;;;;;;7.47;6.72;;;;;;;;;;5018870;28;20229;-78
2022/03/10 10:39:53;;;;;;;11.83;7.10;;;;;;;;;;4990153;28;20211;-78
2022/03/10 10:42:19;;;;;;;8.73;7.10;;;;;;;;;;5000565;28;20443;-78
2022/03/10 10:44:45;;;;;;;8.18;6.85;;;;;;;;;;5000762;28;20195;-78
2022/03/10 10:47:11;;;;;;;10.02;7.18;;;;;;;;;;4996810;28;20187;-77
2022/03/10 10:49:37;;;;;;;7.70;6.95;;;;;;;;;;5002920;28;20187;-76
2022/03/10 10:52:03;;;;;;;7.07;6.25;;;;;;;;;;5004884;28;20202;-76
2022/03/10 10:54:31;;;;;;;7.88;6.70;;;;;;;;;;5002818;28;20187;-76
2022/03/10 10:56:57;;;;;;;10.23;7.57;;;;;;;;;;4996490;28;20183;-76
2022/03/10 10:59:31;;;;;;;7.60;6.53;;;;;;;;;;4998919;28;20200;-76
2022/03/10 11:02:05;;;;;;;9.25;6.70;;;;;;;;;;4999199;28;20431;-76
2022/03/10 11:04:31;;;;;;;7.60;6.25;;;;;;;;;;5013577;28;20199;-76
2022/03/10 11:06:58;;;;;;;6.93;6.22;;;;;;;;;;5004597;28;20173;-76
2022/03/10 11:09:25;;;;;;;7.95;6.53;;;;;;;;;;4988239;28;20251;-77
2022/03/10 11:11:51;;;;;;;8.02;6.28;;;;;;;;;;4989507;28;20190;-77
2022/03/10 11:14:18;;;;;;;6.72;5.90;;;;;;;;;;4995792;28;20197;-77
2022/03/10 11:16:44;;;;;;;6.60;5.70;;;;;;;;;;4990642;28;20357;-77
2022/03/10 11:19:12;;;;;;;6.70;5.78;;;;;;;;;;4995324;28;20177;-76
2022/03/10 11:21:38;;;;;;;7.55;6.20;;;;;;;;;;5001896;28;20212;-76
2022/03/10 11:24:20;;;;;;;5.75;5.15;;;;;;;;;;4996016;28;20217;-77
2022/03/10 11:26:49;;;;;;;6.10;5.50;;;;;;;;;;4995859;28;20192;-76
2022/03/10 11:29:23;;;;;;;5.85;5.32;;;;;;;;;;4997301;28;20191;-77
2022/03/10 11:31:49;;;;;;;10.05;5.72;;;;;;;;;;4996016;28;20178;-79
2022/03/10 11:34:34;;;;;;;8.02;5.40;;;;;;;;;;5018197;28;20249;-79
2022/03/10 11:37:08;;;;;;;7.25;5.30;;;;;;;;;;5003376;28;20191;-79
2022/03/10 11:39:52;;;;;;;5.78;5.28;;;;;;;;;;5002805;28;20228;-78
2022/03/10 11:42:29;;;;;;;6.68;5.65;;;;;;;;;;5000247;28;20184;-78
2022/03/10 11:45:31;;;;;;;5.50;5.00;;;;;;;;;;4997286;28;20540;-78
2022/03/10 11:48:17;;;;;;;5.43;4.88;;;;;;;;;;4993013;28;20226;-78
2022/03/10 11:50:43;;;;;;;5.70;5.20;;;;;;;;;;4982744;28;20186;-77
2022/03/10 11:53:12;;;;;;;5.40;4.85;;;;;;;;;;4999334;28;20206;-78
2022/03/10 11:55:42;;;;;;;5.50;5.00;;;;;;;;;;4999483;28;20230;-78
2022/03/10 11:58:10;;;;;;;4.68;3.90;;;;;;;;;;4997456;28;20183;-79
2022/03/10 12:00:46;;;;;;;4.50;4.10;;;;;;;;;;4998330;28;20193;-78
2022/03/10 12:03:25;;;;;;;5.90;4.80;;;;;;;;;;4977920;28;20217;-78
2022/03/10 12:05:55;;;;;;;4.67;4.27;;;;;;;;;;5000493;28;20185;-79
2022/03/10 12:08:21;;;;;;;4.37;4.00;;;;;;;;;;4980578;28;20442;-79
2022/03/10 12:10:47;;;;;;;4.30;3.90;;;;;;;;;;4997916;28;20507;-79
2022/03/10 12:13:29;;;;;;;4.50;4.10;;;;;;;;;;4996321;28;20470;-76
2022/03/10 12:15:55;;;;;;;7.37;4.97;;;;;;;;;;5000280;28;20494;-76
2022/03/10 12:18:26;;;;;;;5.60;4.00;;;;;;;;;;4997152;28;20418;-76
2022/03/10 12:20:56;;;;;;;4.83;4.43;;;;;;;;;;4979780;28;20443;-76
2022/03/10 12:23:23;;;;;;;4.70;4.30;;;;;;;;;;4998313;28;20447;-77
2022/03/10 12:25:54;;;;;;;5.23;4.73;;;;;;;;;;4998259;28;20732;-77
2022/03/10 12:28:21;;;;;;;6.63;3.93;;;;;;;;;;4999898;28;20392;-77
2022/03/10 12:30:47;;;;;;;4.37;3.97;;;;;;;;;;5001573;28;20389;-76
2022/03/10 12:33:13;;;;;;;5.23;4.77;;;;;;;;;;5014577;28;20442;-77
2022/03/10 12:35:43;;;;;;;4.63;3.57;;;;;;;;;;5000001;28;20435;-77
2022/03/10 12:38:09;;;;;;;4.40;3.87;;;;;;;;;;4999457;28;20443;-77
2022/03/10 12:40:36;;;;;;;4.90;4.10;;;;;;;;;;5000526;28;20465;-77
2022/03/10 12:43:11;;;;;;;5.10;4.67;;;;;;;;;;5001770;28;20470;-76
2022/03/10 12:45:45;;;;;;;4.90;4.47;;;;;;;;;;4988367;28;20485;-77
2022/03/10 12:48:11;;;;;;;4.40;4.10;;;;;;;;;;4996551;28;20439;-77
2022/03/10 12:50:37;;;;;;;4.50;3.67;;;;;;;;;;4997370;28;20436;-77
2022/03/10 12:53:10;;;;;;;3.90;3.50;;;;;;;;;;5013421;28;20435;-76
2022/03/10 12:55:36;;;;;;;3.90;3.50;;;;;;;;;;5015074;28;20432;-77
2022/03/10 12:58:02;;;;;;;6.70;3.60;;;;;;;;;;4990178;28;20493;-76
2022/03/10 13:00:28;;;;;;;4.30;3.50;;;;;;;;;;4996677;28;20446;-77
2022/03/10 13:02:58;;;;;;;4.70;3.60;;;;;;;;;;4998712;28;21069;-77
2022/03/10 13:05:26;;;;;;;5.03;4.30;;;;;;;;;;4996865;28;20713;-76
2022/03/10 13:07:54;;;;;;;4.47;4.10;;;;;;;;;;4998663;28;20452;-77
2022/03/10 13:10:22;;;;;;;5.10;4.47;;;;;;;;;;5016800;28;20433;-77
2022/03/10 13:12:48;;;;;;;4.07;3.77;;;;;;;;;;5000944;28;20852;-77
2022/03/10 13:15:19;;;;;;;4.30;3.90;;;;;;;;;;4998641;28;20446;-77
2022/03/10 13:17:45;;;;;;;4.10;3.80;;;;;;;;;;5001384;28;20444;-77
2022/03/10 13:20:16;;;;;;;4.97;4.10;;;;;;;;;;5003067;28;20522;-78
2022/03/10 13:22:46;;;;;;;4.30;4.00;;;;;;;;;;5004304;28;20469;-78
2022/03/10 13:25:12;;;;;;;4.30;3.90;;;;;;;;;;5019685;28;20537;-77
2022/03/10 13:27:38;;;;;;;3.63;3.27;;;;;;;;;;5004575;28;20428;-78
2022/03/10 13:30:05;;;;;;;3.97;3.67;;;;;;;;;;5002208;28;20442;-78
2022/03/10 13:32:33;;;;;;;4.40;4.00;;;;;;;;;;5002687;28;20451;-77
2022/03/10 13:35:01;;;;;;;4.63;3.87;;;;;;;;;;5004306;28;20437;-77
2022/03/10 13:37:27;;;;;;;4.13;3.73;;;;;;;;;;5019326;28;20442;-77
2022/03/10 13:39:54;;;;;;;4.33;3.93;;;;;;;;;;4991208;28;20461;-78
2022/03/10 13:42:31;;;;;;;3.80;3.50;;;;;;;;;;4997226;28;20455;-77
2022/03/10 13:45:00;;;;;;;4.43;3.33;;;;;;;;;;5015427;28;20453;-77
2022/03/10 13:47:26;;;;;;;4.13;3.83;;;;;;;;;;4993472;28;20927;-78
2022/03/10 13:49:54;;;;;;;4.07;3.67;;;;;;;;;;4998488;28;20435;-77
2022/03/10 13:52:22;;;;;;;3.77;3.47;;;;;;;;;;5002180;28;20459;-77
2022/03/10 13:54:49;;;;;;;4.30;3.90;;;;;;;;;;5003177;28;20470;-78
2022/03/10 13:57:15;;;;;;;4.13;3.80;;;;;;;;;;4991772;28;20442;-78
2022/03/10 13:59:41;;;;;;;3.67;3.37;;;;;;;;;;5001479;28;20442;-77
2022/03/10 14:02:27;;;;;;;3.53;3.23;;;;;;;;;;5001601;28;20441;-77
2022/03/10 14:04:53;;;;;;;3.70;3.40;;;;;;;;;;4998751;28;20446;-78
2022/03/10 14:07:20;;;;;;;3.60;3.40;;;;;;;;;;4988710;28;20518;-78
2022/03/10 14:09:46;;;;;;;4.57;4.07;;;;;;;;;;5005828;28;20406;-78
2022/03/10 14:12:26;;;;;;;4.23;3.83;;;;;;;;;;5003612;28;20434;-79
2022/03/10 14:14:52;;;;;;;4.00;3.70;;;;;;;;;;4994839;28;20954;-78
2022/03/10 14:17:19;;;;;;;3.17;2.97;;;;;;;;;;5001567;28;20437;-78
2022/03/10 14:19:45;;;;;;;5.23;4.30;;;;;;;;;;5003705;28;21005;-79
2022/03/10 14:22:19;;;;;;;4.80;4.40;;;;;;;;;;5018749;28;20446;-78
2022/03/10 14:24:52;;;;;;;4.90;4.43;;;;;;;;;;5004011;28;20430;-78
2022/03/10 14:27:18;;;;;;;4.50;4.10;;;;;;;;;;4996875;28;20513;-78
2022/03/10 14:29:50;;;;;;;4.47;4.17;;;;;;;;;;5000250;28;20466;-78
2022/03/10 14:32:16;;;;;;;5.40;5.00;;;;;;;;;;5014317;28;20431;-78
2022/03/10 14:34:42;;;;;;;4.57;4.27;;;;;;;;;;5002410;28;20434;-78